Milan, Tennessee
Current Conditions -  °F | °C
As of 10:53 AM on Monday 22 Dec 2014 (Local Time) from KMKL Reporting Station
Overcast Overcast  
Wind Chill: 56°   Ceiling: 1400
Heat Index: 56°   Visibility: 10mi
Dew Point: 49°   Wind: 8mph
Humidity: 77%   Direction: 180°S
Pressure: 29.79"   Gusts: NA
Location:  35.92°N, 88.76°W
Report Text: KMKL 221653Z 18007KT 10SM BKN014 BKN023 OVC028 13/09 A2979 RMK AO2 SLP087 T01330094
Loading
Personal Weather Stations






























Interactive Weather Map New forecast layout! Learn more

10-Day Weather Forecast

Advertisements
Track Severe Weather on mobile